Mount Airy, NC

5:12 AM EST on December 18, 2017 (GMT -0500)
Mount Airy-Surry County

Weather History for KMWK - December, 2012

Change the Weather History Date:

Thursday, December 27, 2012

  Actual Average (KINT) Record (KINT)
Temperature  
Mean Temperature 36 °F -  
Max Temperature 43 °F 47 °F 73 °F (2015)
Min Temperature 30 °F 30 °F 8 °F (1983)
Degree Days  
Heating Degree Days 29    
Moisture  
Dew Point 27 °F    
Average Humidity 67    
Maximum Humidity 83    
Minimum Humidity 54    
Precipitation  
Precipitation 0.00 in - - ()
Sea Level Pressure  
Sea Level Pressure 29.89 in    
Wind  
Wind Speed 10 mph (NW)    
Max Wind Speed 21 mph    
Max Gust Speed 29 mph    
Visibility 10 miles    
Events      
Averages and records for this station are not official NWS values.
T = Trace of Precipitation, MM = Missing Value Source: NWS Daily Summary

Daily Weather History Graph

Daily Weather History Graph

Search for Another Location

Airport or City:

Trip Planner

Search our weather history database for the weather conditions in past years. The results will help you decide how hot, cold, wet, or windy it might be!

Date:

Astronomy

Dec. 27, 2012 Rise Set
Actual Time 7:32 AM EST 5:14 PM EST
Civil Twilight 7:04 AM EST 5:43 PM EST
Nautical Twilight 6:31 AM EST 6:15 PM EST
Astronomical Twilight 6:00 AM EST 6:46 PM EST
Moon 4:55 PM EST (12/27) 6:43 AM EST (12/27)
Length of Visible Light 10h 38m
Length of Day
9h 41m
Full, 100% of the Moon is Illuminated
Dec 27
Full
Dec 28
Full
Jan 4
Last Quarter
Jan 11
New
Jan 18
First Quarter

Hourly Weather History & Observations

Time (EST) Temp. Windchill Dew Point Humidity Pressure Visibility Wind Dir Wind Speed Gust Speed Precip Events Conditions
12:15 AM 40.1 °F 35.3 °F 30.9 °F 70% 29.64 in 10.0 mi WNW 6.9 mph 16.1 mph N/A   Overcast
12:35 AM 40.1 °F 32.4 °F 30.2 °F 68% 29.64 in 10.0 mi WNW 13.8 mph 24.2 mph N/A   Overcast
12:55 AM 39.6 °F 33.0 °F 30.0 °F 69% 29.65 in 10.0 mi WNW 10.4 mph 27.6 mph N/A   Mostly Cloudy
1:15 AM 39.4 °F 30.7 °F 30.2 °F 70% 29.66 in 10.0 mi WNW 16.1 mph 24.2 mph N/A   Overcast
1:35 AM 38.8 °F 30.0 °F 30.2 °F 71% 29.66 in 10.0 mi WNW 16.1 mph 25.3 mph N/A   Overcast
1:55 AM 38.8 °F 30.8 °F 30.0 °F 71% 29.67 in 10.0 mi WNW 13.8 mph 24.2 mph N/A   Overcast
2:15 AM 38.3 °F 30.5 °F 29.8 °F 72% 29.68 in 10.0 mi WNW 12.7 mph 24.2 mph N/A   Overcast
2:35 AM 38.5 °F 31.6 °F 29.1 °F 69% 29.69 in 10.0 mi WNW 10.4 mph 23.0 mph N/A   Overcast
2:55 AM 38.3 °F 32.5 °F 28.4 °F 68% 29.68 in 10.0 mi NW 8.1 mph 17.3 mph N/A   Overcast
3:15 AM 37.8 °F 29.0 °F 28.4 °F 69% 29.68 in 10.0 mi WNW 15.0 mph 25.3 mph N/A   Scattered Clouds
3:35 AM 37.8 °F 29.0 °F 28.2 °F 68% 29.68 in 10.0 mi NW 15.0 mph 28.8 mph N/A   Scattered Clouds
3:55 AM 37.6 °F 29.1 °F 28.4 °F 69% 29.69 in 10.0 mi WNW 13.8 mph 23.0 mph N/A   Scattered Clouds
4:15 AM 37.8 °F 29.8 °F 27.9 °F 67% 29.71 in 10.0 mi WNW 12.7 mph 24.2 mph N/A   Scattered Clouds
4:55 AM 37.8 °F 29.4 °F 27.5 °F 67% 29.73 in 10.0 mi West 13.8 mph 23.0 mph N/A   Overcast
5:15 AM 37.6 °F 30.0 °F 27.1 °F 66% 29.75 in 10.0 mi West 11.5 mph 21.9 mph N/A   Overcast
5:35 AM 37.4 °F 27.8 °F 27.0 °F 66% 29.75 in 10.0 mi NW 17.3 mph 25.3 mph N/A   Overcast
5:55 AM 37.4 °F 28.2 °F 26.2 °F 64% 29.76 in 10.0 mi NW 16.1 mph 24.2 mph N/A   Mostly Cloudy
6:35 AM 36.9 °F 26.5 °F 26.4 °F 66% 29.78 in 10.0 mi NW 19.6 mph 28.8 mph N/A   Mostly Cloudy
6:55 AM 36.9 °F 27.1 °F 26.6 °F 66% 29.78 in 10.0 mi NW 17.3 mph 24.2 mph N/A   Scattered Clouds
7:15 AM 36.9 °F 26.2 °F 26.6 °F 66% 29.78 in 10.0 mi NW 20.7 mph 27.6 mph N/A   Clear
7:35 AM 36.5 °F 26.7 °F 26.6 °F 67% 29.78 in 10.0 mi NW 17.3 mph 27.6 mph N/A   Clear
7:55 AM 36.5 °F 28.7 °F 26.4 °F 67% 29.80 in 10.0 mi WNW 11.5 mph 21.9 mph N/A   Clear
8:15 AM 36.7 °F 29.9 °F 26.6 °F 67% 29.82 in 10.0 mi WNW 9.2 mph 18.4 mph N/A   Scattered Clouds
8:35 AM 36.5 °F 29.7 °F 26.6 °F 67% 29.83 in 10.0 mi WNW 9.2 mph - N/A   Scattered Clouds
8:55 AM 36.5 °F 31.0 °F 26.6 °F 67% 29.84 in 10.0 mi West 6.9 mph 19.6 mph N/A   Scattered Clouds
9:15 AM 36.9 °F 32.2 °F 26.8 °F 67% 29.85 in 10.0 mi NW 5.8 mph - N/A   Clear
9:35 AM 37.4 °F 34.9 °F 26.8 °F 66% 29.86 in 10.0 mi NNW 3.5 mph - N/A   Clear
9:55 AM 38.7 °F 33.6 °F 27.3 °F 64% 29.88 in 10.0 mi WNW 6.9 mph 19.6 mph N/A   Clear
10:15 AM 39.4 °F 32.7 °F 27.3 °F 62% 29.90 in 10.0 mi NW 10.4 mph 23.0 mph N/A   Clear
10:35 AM 40.1 °F 36.1 °F 27.9 °F 62% 29.90 in 10.0 mi WNW 5.8 mph 18.4 mph N/A   Clear
10:55 AM 40.3 °F 33.4 °F 27.5 °F 60% 29.92 in 10.0 mi WNW 11.5 mph 25.3 mph N/A   Clear
11:55 AM 41.4 °F 33.0 °F 27.7 °F 58% 29.91 in 10.0 mi NW 17.3 mph 24.2 mph N/A   Clear
12:15 PM 41.7 °F 35.2 °F 27.7 °F 58% 29.92 in 10.0 mi NW 11.5 mph 27.6 mph N/A   Clear
12:35 PM 42.1 °F 34.2 °F 28.0 °F 58% 29.92 in 10.0 mi NW 16.1 mph 24.2 mph N/A   Clear
12:55 PM 41.9 °F 35.4 °F 27.3 °F 56% 29.93 in 10.0 mi NW 11.5 mph 24.2 mph N/A   Clear
1:15 PM 41.9 °F 33.7 °F 27.0 °F 55% 29.93 in 10.0 mi NW 17.3 mph 24.2 mph N/A   Clear
1:35 PM 42.1 °F 34.9 °F 27.3 °F 56% 29.92 in 10.0 mi NNW 13.8 mph 21.9 mph N/A   Clear
1:55 PM 42.6 °F 36.3 °F 27.0 °F 54% 29.93 in 10.0 mi NW 11.5 mph 19.6 mph N/A   Clear
2:15 PM 42.8 °F 36.6 °F 27.3 °F 54% 29.93 in 10.0 mi NNW 11.5 mph 18.4 mph N/A   Clear
2:35 PM 41.9 °F 37.5 °F 26.4 °F 54% 29.94 in 10.0 mi NNW 6.9 mph - N/A   Clear
3:15 PM 41.9 °F 36.3 °F 26.8 °F 55% 29.96 in 10.0 mi NNW 9.2 mph 18.4 mph N/A   Clear
3:35 PM 41.0 °F 35.8 °F 26.4 °F 56% 29.97 in 10.0 mi NNW 8.1 mph 17.3 mph N/A   Clear
3:55 PM 41.4 °F 35.2 °F 27.3 °F 57% 29.98 in 10.0 mi NW 10.4 mph - N/A   Clear
4:15 PM 39.9 °F 34.5 °F 27.1 °F 60% 29.99 in 10.0 mi WNW 8.1 mph - N/A   Clear
4:35 PM 39.0 °F 32.3 °F 27.0 °F 62% 29.99 in 10.0 mi NW 10.4 mph - N/A   Scattered Clouds
4:55 PM 37.8 °F 31.8 °F 26.4 °F 64% 30.00 in 10.0 mi NW 8.1 mph - N/A   Scattered Clouds
5:15 PM 36.9 °F 30.7 °F 26.1 °F 65% 30.01 in 10.0 mi NW 8.1 mph - N/A   Scattered Clouds
5:35 PM 36.5 °F 31.0 °F 25.7 °F 65% 30.02 in 10.0 mi NW 6.9 mph - N/A   Scattered Clouds
5:55 PM 35.8 °F 33.0 °F 26.1 °F 68% 30.03 in 10.0 mi NW 3.5 mph - N/A   Mostly Cloudy
6:15 PM 35.6 °F 30.7 °F 26.1 °F 68% 30.04 in 10.0 mi NNW 5.8 mph - N/A   Mostly Cloudy
6:35 PM 35.1 °F - 25.7 °F 69% 30.04 in 10.0 mi Calm Calm - N/A   Mostly Cloudy
7:35 PM 33.8 °F 29.6 °F 25.7 °F 72% 30.05 in 10.0 mi WNW 4.6 mph - N/A   Clear
7:55 PM 33.3 °F 28.9 °F 25.7 °F 74% 30.05 in 10.0 mi NW 4.6 mph - N/A   Clear
8:15 PM 33.4 °F - 25.5 °F 73% 30.05 in 10.0 mi Calm Calm - N/A   Clear
8:35 PM 32.7 °F 29.6 °F 25.3 °F 74% 30.04 in 10.0 mi NNW 3.5 mph - N/A   Clear
8:55 PM 33.1 °F - 25.3 °F 73% 30.04 in 10.0 mi Calm Calm - N/A   Clear
9:15 PM 31.1 °F - 25.3 °F 79% 30.05 in 10.0 mi Calm Calm - N/A   Clear
9:35 PM 31.5 °F - 25.3 °F 78% 30.05 in 10.0 mi Calm Calm - N/A   Clear
9:55 PM 30.2 °F - 24.6 °F 80% 30.06 in 10.0 mi Calm Calm - N/A   Clear
10:15 PM 30.4 °F - 25.5 °F 82% 30.06 in 10.0 mi Calm Calm - N/A   Clear
10:35 PM 31.8 °F - 25.0 °F 76% 30.07 in 10.0 mi Calm Calm - N/A   Clear
10:55 PM 31.5 °F - 24.6 °F 76% 30.08 in 10.0 mi Calm Calm - N/A   Clear
11:15 PM 30.2 °F - 25.3 °F 82% 30.08 in 10.0 mi Calm Calm - N/A   Clear
11:35 PM 30.0 °F - 25.3 °F 83% 30.08 in 10.0 mi Calm Calm - N/A   Clear
11:55 PM 31.6 °F - 24.6 °F 75% 30.06 in 10.0 mi Calm Calm - N/A   Clear